Trier Petrisberg, Germany

8:22 AM CET on December 27, 2014 (GMT +0100)
Kenn, Germany | Change Station
CLOSE
Current Station
Personal Weather Station
Location: Kenn, RHEINLAND-PFALZ
Elevation: 466 ft
Nearby Weather Stations

Elev 466 ft 49.80 °N, 6.72 °E | Updated 10 minutes ago

Light Snow
Light Snow Mist
33.4 °F
Feels Like 33 °F
N
1.0
Wind Variable Wind from ESE
Gusts 7.0 mph

Today
High -- | Low -- °F
--% Chance of Precip.
Yesterday
High -- | Low -- °F
Precip. -- in
8:30 AM 4:38 PM
Waxing Crescent, 33% visible
Pressure 29.45 in
Visibility -9999.0 miles
Clouds Overcast 200 ft
Windchill 33 °F
Dew Point 32 °F
Humidity 95%
Rainfall 0.05 in
Snow Depth Not available.
UV 0.0 out of 12
Pollen Not available.
Air Quality Not available.
Flu Activity Not available.
SPECI ETAD 270720Z AUTO 10007KT 3200 -SN BR OVC002 00/M01 A2945 RMK AO2 VIS 1600V3200 $

More Conditions Fewer Conditions

Pressure 29.45 in
Visibility -9999.0 miles
Clouds Overcast 200 ft
Windchill 33 °F
Dew Point 32 °F
Humidity 95%
Rainfall 0.05 in
Snow Depth Not available.
UV 0.0 out of 12
Pollen Not available.
Air Quality Not available.
Flu Activity Not available.
SPECI ETAD 270720Z AUTO 10007KT 3200 -SN BR OVC002 00/M01 A2945 RMK AO2 VIS 1600V3200 $

More Conditions Fewer Conditions

10-Day Weather Forecast

Almanac

Astronomy

Dec. 27, 2014 Rise Set
Actual Time
Civil Twilight
Nautical Twilight
Astronomical Twilight
Moon
Length of Visible Light
Length of Day
Tomorrow will be .
, % of the Moon is Illuminated

Today's Extremes

Country Highs Country Lows

Community

WunderPhotos

Upload Photos

1,780,863 photos uploaded!

WunderBlogs® & News

Nearby

Air Quality

  Air Quality AQ Index Pollutant
Not available.

Snow Depth

Station Depth Elevation

Earthquake Activity

City Distance Mag. Time & Date
Minimum magnitude displayed is 2.5.

Coastal Water Temperatures

Place Temperature

Nearby Weather Stations